Time;durP1;ratioP1;P1;durP2;ratioP2;P2;SDS_P1;SDS_P2;PMS_P1;PMS_P2;Temp;Humidity;BMP_temperature;BMP_pressure;BME280_temperature;BME280_humidity;BME280_pressure;Samples;Min_cycle;Max_cycle;Signal;HPM_P1;HPM_P2
2023/03/29 00:01:46;;;;;;;7.20;1.00;;;;;;;10.94;45.89;100520.69;5036577;28;20029;-63
2023/03/29 00:04:12;;;;;;;6.38;1.00;;;;;;;10.91;45.60;100522.47;5036867;28;20017;-63
2023/03/29 00:06:38;;;;;;;4.20;0.90;;;;;;;10.88;46.17;100517.19;5036233;28;20443;-63
2023/03/29 00:09:08;;;;;;;3.78;0.80;;;;;;;10.84;46.41;100515.47;5036428;28;20040;-63
2023/03/29 00:11:34;;;;;;;3.87;0.80;;;;;;;10.83;46.06;100521.59;5036365;28;20065;-63
2023/03/29 00:13:59;;;;;;;4.68;0.98;;;;;;;10.85;46.73;100521.59;5036480;28;20029;-63
2023/03/29 00:16:25;;;;;;;4.27;1.07;;;;;;;10.88;46.74;100522.47;5036420;28;20033;-63
2023/03/29 00:18:50;;;;;;;3.95;1.00;;;;;;;10.90;46.75;100525.97;5035269;28;20054;-63
2023/03/29 00:21:16;;;;;;;5.57;0.83;;;;;;;10.88;46.85;100511.94;5035687;28;20052;-63
2023/03/29 00:23:41;;;;;;;3.47;0.80;;;;;;;10.87;46.97;100506.69;5038458;28;20030;-63
2023/03/29 00:26:07;;;;;;;4.32;1.10;;;;;;;10.87;46.62;100501.41;5036346;28;20055;-63
2023/03/29 00:28:32;;;;;;;5.10;1.17;;;;;;;10.80;47.46;100500.53;5036338;28;20026;-63
2023/03/29 00:31:06;;;;;;;3.97;1.00;;;;;;;10.67;48.46;100490.88;5036074;28;20026;-63
2023/03/29 00:33:32;;;;;;;6.05;0.90;;;;;;;10.58;48.21;100491.75;5036519;28;20025;-63
2023/03/29 00:35:57;;;;;;;5.13;0.82;;;;;;;10.50;48.37;100481.25;5036047;28;20132;-63
2023/03/29 00:38:22;;;;;;;9.20;1.13;;;;;;;10.45;48.11;100472.47;5036311;28;20103;-63
2023/03/29 00:40:48;;;;;;;5.20;0.83;;;;;;;10.43;48.61;100467.22;5036229;28;20028;-63
2023/03/29 00:43:14;;;;;;;7.67;0.93;;;;;;;10.43;48.70;100471.59;5036869;28;20033;-63
2023/03/29 00:45:40;;;;;;;4.65;1.17;;;;;;;10.43;48.53;100461.94;5039915;28;20045;-63
2023/03/29 00:48:09;;;;;;;8.18;2.20;;;;;;;10.46;48.37;100461.03;5040161;28;20105;-63
2023/03/29 00:50:48;;;;;;;4.87;0.70;;;;;;;10.43;48.86;100459.31;5039740;28;20025;-63
2023/03/29 00:53:17;;;;;;;5.30;0.90;;;;;;;10.37;48.61;100461.03;5039729;28;20036;-63
2023/03/29 00:56:00;;;;;;;8.68;2.20;;;;;;;10.32;49.34;100456.66;5039832;28;20017;-63
2023/03/29 00:58:33;;;;;;;5.38;1.10;;;;;;;10.25;48.95;100454.00;5039723;28;20075;-63
2023/03/29 01:01:14;;;;;;;4.95;0.70;;;;;;;10.16;49.00;100445.25;5039750;28;20052;-63
2023/03/29 01:03:48;;;;;;;4.10;0.87;;;;;;;10.10;48.94;100446.97;5039955;28;20026;-63
2023/03/29 01:06:16;;;;;;;5.90;0.75;;;;;;;10.08;48.86;100438.22;5038085;28;20026;-63
2023/03/29 01:08:49;;;;;;;4.38;0.80;;;;;;;10.05;49.39;100439.97;5039568;28;20022;-63
2023/03/29 01:11:29;;;;;;;7.03;1.02;;;;;;;10.07;49.01;100441.72;5039400;28;20084;-63
2023/03/29 01:14:02;;;;;;;6.63;0.90;;;;;;;10.04;49.07;100438.22;5039345;28;20026;-63
2023/03/29 01:16:30;;;;;;;8.10;1.83;;;;;;;10.04;49.52;100437.31;5038128;28;20025;-63
2023/03/29 01:18:59;;;;;;;6.65;0.90;;;;;;;10.02;49.64;100429.44;5052732;28;20021;-63
2023/03/29 01:21:31;;;;;;;5.00;1.00;;;;;;;10.01;49.59;100422.44;5050351;28;20064;-63
2023/03/29 01:24:09;;;;;;;6.72;1.00;;;;;;;9.95;50.33;100425.03;5038960;28;20025;-63
2023/03/29 01:26:42;;;;;;;5.28;0.90;;;;;;;9.94;49.97;100425.91;5039309;28;20442;-63
2023/03/29 01:29:30;;;;;;;3.57;0.83;;;;;;;9.87;51.04;100425.00;5038726;28;20025;-63
2023/03/29 01:32:02;;;;;;;3.92;0.80;;;;;;;9.85;50.79;100425.91;5038015;28;20104;-63
2023/03/29 01:34:37;;;;;;;5.35;0.75;;;;;;;9.80;51.15;100427.66;5039285;28;20033;-63
2023/03/29 01:37:12;;;;;;;5.50;0.70;;;;;;;9.79;51.08;100426.78;5038622;28;20021;-63
2023/03/29 01:39:38;;;;;;;4.32;0.80;;;;;;;9.80;50.94;100432.91;5037865;28;20064;-63
2023/03/29 01:42:21;;;;;;;3.93;0.87;;;;;;;9.83;50.76;100438.19;5038935;28;20029;-63
2023/03/29 01:44:57;;;;;;;7.28;0.90;;;;;;;9.87;50.92;100439.94;5039163;28;20372;-63
2023/03/29 01:47:32;;;;;;;6.40;1.75;;;;;;;9.93;51.31;100444.34;5039075;28;20117;-63
2023/03/29 01:50:29;;;;;;;5.10;1.50;;;;;;;9.95;51.03;100447.84;5037458;28;20075;-63
2023/03/29 01:53:34;;;;;;;5.20;1.00;;;;;;;9.86;51.92;100443.44;5038487;28;20392;-63
2023/03/29 01:56:10;;;;;;;6.07;1.08;;;;;;;9.79;51.91;100436.44;5032344;28;20060;-63
2023/03/29 01:58:39;;;;;;;3.90;0.70;;;;;;;9.73;51.96;100440.78;5038760;28;20486;-63
2023/03/29 02:01:09;;;;;;;5.45;0.70;;;;;;;9.69;52.02;100441.66;5038638;28;20053;-63
2023/03/29 02:03:41;;;;;;;7.32;0.88;;;;;;;9.67;52.14;100442.53;5038566;28;20029;-63
2023/03/29 02:06:10;;;;;;;5.47;0.93;;;;;;;9.63;52.39;100437.25;5038345;28;20021;-63
2023/03/29 02:08:38;;;;;;;4.63;0.82;;;;;;;9.62;52.54;100439.88;5038390;28;20485;-63
2023/03/29 02:11:04;;;;;;;4.95;1.10;;;;;;;9.58;52.82;100439.00;5038232;28;20049;-63
2023/03/29 02:13:29;;;;;;;3.95;0.90;;;;;;;9.56;52.96;100440.75;5038161;28;20041;-63
2023/03/29 02:15:55;;;;;;;4.53;0.80;;;;;;;9.55;52.82;100443.38;5057684;28;20079;-63
2023/03/29 02:18:21;;;;;;;4.63;0.90;;;;;;;9.53;53.04;100435.47;5058444;28;20111;-63
2023/03/29 02:20:49;;;;;;;6.95;0.93;;;;;;;9.52;52.73;100441.59;5054518;28;20428;-63
2023/03/29 02:23:26;;;;;;;5.30;0.90;;;;;;;9.48;53.51;100440.72;5037842;28;20025;-63
2023/03/29 02:25:53;;;;;;;3.77;0.70;;;;;;;9.47;53.22;100441.59;5038347;28;20021;-63
2023/03/29 02:28:20;;;;;;;4.93;0.85;;;;;;;9.48;53.18;100431.97;5037755;28;20014;-63
2023/03/29 02:31:18;;;;;;;4.32;0.75;;;;;;;9.50;53.22;100429.31;5037881;28;20543;-63
2023/03/29 02:33:59;;;;;;;5.03;0.82;;;;;;;9.51;53.20;100433.72;5038037;28;20478;-63
2023/03/29 02:36:33;;;;;;;4.82;0.80;;;;;;;9.51;52.98;100434.59;5037687;28;20510;-63
2023/03/29 02:39:03;;;;;;;6.17;0.90;;;;;;;9.53;53.05;100435.47;5038002;28;20041;-63
2023/03/29 02:41:29;;;;;;;5.82;0.82;;;;;;;9.57;52.79;100439.00;5037778;28;20109;-63
2023/03/29 02:43:57;;;;;;;4.90;0.60;;;;;;;9.59;52.53;100445.16;5038044;28;20452;-63
2023/03/29 02:46:23;;;;;;;4.65;0.90;;;;;;;9.58;52.82;100446.88;5037733;28;20055;-63
2023/03/29 02:48:50;;;;;;;4.53;0.80;;;;;;;9.59;52.71;100437.25;5037700;28;20025;-63
2023/03/29 02:51:20;;;;;;;4.32;0.60;;;;;;;9.60;52.53;100442.50;5037434;28;20394;-63
2023/03/29 02:54:14;;;;;;;7.43;0.93;;;;;;;9.59;53.03;100447.78;5037437;28;20029;-63
2023/03/29 02:56:45;;;;;;;5.07;0.73;;;;;;;9.58;52.91;100438.13;5037790;28;20393;-63
2023/03/29 02:59:11;;;;;;;4.00;0.68;;;;;;;9.59;52.58;100445.16;5037235;28;20158;-63
2023/03/29 03:04:02;;;;;;;4.75;0.90;;;;;;;9.61;52.71;100453.91;5043370;28;20028;-63
2023/03/29 03:06:28;;;;;;;5.20;0.77;;;;;;;9.58;52.75;100444.25;5056382;28;20108;-63
2023/03/29 03:08:53;;;;;;;6.70;0.77;;;;;;;9.55;52.94;100449.50;5040518;28;20029;-63
2023/03/29 03:11:19;;;;;;;4.03;0.90;;;;;;;9.52;53.38;100449.50;5046911;28;20052;-63
2023/03/29 03:13:44;;;;;;;6.13;1.20;;;;;;;9.47;53.37;100451.25;5056983;28;20080;-63
2023/03/29 03:16:10;;;;;;;4.85;0.75;;;;;;;9.45;53.13;100445.09;5057245;28;20505;-63
2023/03/29 03:18:35;;;;;;;3.63;0.60;;;;;;;9.45;53.64;100448.59;5057237;28;20048;-63
2023/03/29 03:21:01;;;;;;;5.93;0.80;;;;;;;9.45;53.87;100451.22;5051473;28;20009;-63
2023/03/29 03:23:28;;;;;;;6.00;0.80;;;;;;;9.45;54.13;100450.34;5036815;28;20520;-63
2023/03/29 03:25:54;;;;;;;3.47;0.70;;;;;;;9.43;54.45;100438.97;5037184;28;20430;-63
2023/03/29 03:28:20;;;;;;;5.90;0.90;;;;;;;9.43;54.24;100438.97;5036893;28;20152;-63
2023/03/29 03:30:46;;;;;;;3.28;0.50;;;;;;;9.44;54.29;100436.31;5035780;28;20032;-63
2023/03/29 03:33:12;;;;;;;6.17;0.70;;;;;;;9.45;54.17;100437.22;5036964;28;20030;-63
2023/03/29 03:35:38;;;;;;;5.88;1.00;;;;;;;9.43;54.73;100433.72;5036843;28;20108;-63
2023/03/29 03:38:04;;;;;;;6.57;0.80;;;;;;;9.43;54.69;100431.94;5036939;28;20022;-63
2023/03/29 03:40:31;;;;;;;7.22;0.90;;;;;;;9.43;54.68;100434.56;5037151;28;20075;-63
2023/03/29 03:42:56;;;;;;;4.55;0.70;;;;;;;9.44;54.76;100425.81;5036769;28;20140;-63
2023/03/29 03:45:23;;;;;;;6.07;0.80;;;;;;;9.44;54.84;100431.06;5042530;28;20033;-63
2023/03/29 03:47:49;;;;;;;4.78;0.60;;;;;;;9.45;54.80;100427.56;5056885;28;20021;-63
2023/03/29 03:50:16;;;;;;;6.15;0.90;;;;;;;9.45;54.66;100424.94;5056441;28;20039;-63
2023/03/29 03:52:42;;;;;;;7.85;0.90;;;;;;;9.44;54.94;100432.84;5056591;28;20017;-63
2023/03/29 03:55:08;;;;;;;5.97;1.10;;;;;;;9.42;55.09;100424.94;5056472;28;20082;-63
2023/03/29 03:57:36;;;;;;;4.38;1.00;;;;;;;9.33;55.86;100423.13;5056537;28;20413;-63
2023/03/29 04:00:23;;;;;;;5.32;1.38;;;;;;;9.23;56.61;100420.47;5039383;28;20120;-63
2023/03/29 04:02:50;;;;;;;4.73;0.83;;;;;;;9.13;56.86;100409.03;5036727;28;20123;-63
2023/03/29 04:05:16;;;;;;;5.35;1.33;;;;;;;9.06;57.14;100405.53;5036263;28;20104;-63
2023/03/29 04:07:42;;;;;;;5.28;0.80;;;;;;;9.01;57.21;100401.97;5053113;28;20106;-63
2023/03/29 04:10:08;;;;;;;9.83;1.17;;;;;;;9.02;57.27;100402.00;5056710;28;20510;-63
2023/03/29 04:12:37;;;;;;;7.10;1.00;;;;;;;9.05;57.18;100416.91;5056574;28;20036;-63
2023/03/29 04:15:03;;;;;;;5.68;1.17;;;;;;;9.01;57.96;100407.25;5056573;28;20035;-63
2023/03/29 04:17:29;;;;;;;4.75;0.80;;;;;;;9.04;57.53;100420.38;5057306;28;20028;-63
2023/03/29 04:19:56;;;;;;;6.53;0.93;;;;;;;9.05;57.52;100414.28;5060885;28;20021;-63
2023/03/29 04:22:22;;;;;;;9.73;1.30;;;;;;;9.04;58.08;100415.13;5043816;28;20096;-63
2023/03/29 04:24:47;;;;;;;4.80;0.93;;;;;;;9.01;58.03;100409.88;5040786;28;20043;-63
2023/03/29 04:27:13;;;;;;;7.90;1.00;;;;;;;8.98;58.53;100409.84;5040477;28;20032;-63
2023/03/29 04:29:38;;;;;;;4.40;0.90;;;;;;;8.93;58.80;100401.09;5040085;28;20113;-63
2023/03/29 04:32:03;;;;;;;9.83;1.07;;;;;;;8.93;58.79;100398.47;5040506;28;20025;-63
2023/03/29 04:34:29;;;;;;;5.82;1.20;;;;;;;8.93;58.40;100403.72;5040597;28;20075;-63
2023/03/29 04:36:55;;;;;;;5.07;0.80;;;;;;;8.96;58.48;100406.34;5039981;28;20093;-63
2023/03/29 04:39:20;;;;;;;3.92;0.90;;;;;;;8.95;58.31;100408.13;5040212;28;20030;-63
2023/03/29 04:41:46;;;;;;;4.33;0.87;;;;;;;8.95;58.45;100404.59;5043981;28;20025;-63
2023/03/29 04:44:13;;;;;;;7.57;1.00;;;;;;;8.96;58.24;100395.84;5040335;28;20025;-63
2023/03/29 04:46:39;;;;;;;6.80;1.40;;;;;;;8.96;58.73;100395.84;5040145;28;20021;-63
2023/03/29 04:49:05;;;;;;;8.23;1.52;;;;;;;8.96;58.57;100401.09;5038864;28;20053;-63
2023/03/29 04:51:32;;;;;;;6.82;1.38;;;;;;;8.96;58.64;100404.63;5039941;28;20035;-63
2023/03/29 04:53:57;;;;;;;8.77;2.77;;;;;;;8.95;58.75;100400.22;5040172;28;20063;-63
2023/03/29 04:56:23;;;;;;;8.13;1.90;;;;;;;8.93;58.84;100401.09;5040069;28;20021;-63
2023/03/29 04:58:49;;;;;;;6.13;1.70;;;;;;;8.89;58.74;100401.06;5038707;28;20041;-63
2023/03/29 05:01:14;;;;;;;7.63;1.38;;;;;;;8.90;59.17;100407.19;5039992;28;20033;-63
2023/03/29 05:03:40;;;;;;;6.87;1.20;;;;;;;8.88;58.97;100401.06;5060038;28;20040;-63
2023/03/29 05:06:09;;;;;;;11.18;1.45;;;;;;;8.87;59.44;100407.16;5058350;28;20021;-63
2023/03/29 05:08:38;;;;;;;6.93;1.10;;;;;;;8.85;59.22;100407.19;5059597;28;20784;-63
2023/03/29 05:11:06;;;;;;;8.60;1.23;;;;;;;8.86;59.25;100411.56;5058838;28;20045;-63
2023/03/29 05:13:32;;;;;;;6.55;1.20;;;;;;;8.84;59.31;100417.66;5057175;28;20029;-63
2023/03/29 05:15:59;;;;;;;8.00;1.40;;;;;;;8.85;59.53;100411.53;5058431;28;20086;-63
2023/03/29 05:18:25;;;;;;;8.98;1.30;;;;;;;8.80;59.83;100406.28;5058388;28;20388;-63
2023/03/29 05:20:51;;;;;;;6.25;1.10;;;;;;;8.78;60.26;100413.25;5054128;28;20044;-63
2023/03/29 05:23:17;;;;;;;7.10;1.30;;;;;;;8.77;60.02;100416.75;5038041;28;20450;-63
2023/03/29 05:25:42;;;;;;;6.68;1.23;;;;;;;8.74;60.30;100417.63;5070536;28;20118;-63
2023/03/29 05:28:08;;;;;;;9.13;1.10;;;;;;;8.74;60.26;100421.97;5038037;28;20035;-63
2023/03/29 05:30:33;;;;;;;6.50;1.20;;;;;;;8.72;60.61;100426.34;5038148;28;20025;-63
2023/03/29 05:33:01;;;;;;;9.18;1.60;;;;;;;8.72;60.83;100421.09;5038201;28;20029;-63
2023/03/29 05:35:27;;;;;;;5.43;1.10;;;;;;;8.67;61.08;100421.06;5037989;28;20033;-63
2023/03/29 05:37:54;;;;;;;9.75;1.48;;;;;;;8.64;61.51;100417.56;5038085;28;20104;-63
2023/03/29 05:40:19;;;;;;;7.68;1.30;;;;;;;8.62;61.51;100425.41;5039274;28;20014;-63
2023/03/29 05:42:45;;;;;;;9.03;1.20;;;;;;;8.65;61.54;100424.56;5039478;28;20096;-63
2023/03/29 05:45:10;;;;;;;6.50;1.27;;;;;;;8.65;61.61;100417.56;5037833;28;20021;-64
2023/03/29 05:47:36;;;;;;;7.67;1.17;;;;;;;8.68;61.29;100421.94;5038051;28;20112;-64
2023/03/29 05:50:01;;;;;;;9.10;1.20;;;;;;;8.70;61.46;100420.22;5037462;28;20081;-64
2023/03/29 05:52:27;;;;;;;3.92;1.35;;;;;;;8.71;61.50;100416.72;5037868;28;20079;-64
2023/03/29 05:54:52;;;;;;;8.93;1.57;;;;;;;8.72;61.71;100413.22;5037595;28;20029;-64
2023/03/29 05:57:17;;;;;;;6.13;1.30;;;;;;;8.73;61.73;100409.72;5037618;28;20052;-64
2023/03/29 05:59:43;;;;;;;10.05;1.50;;;;;;;8.75;61.79;100419.38;5049712;28;20120;-64
2023/03/29 06:02:11;;;;;;;9.27;1.60;;;;;;;8.76;62.77;100415.00;5057576;28;20108;-63
2023/03/29 06:04:37;;;;;;;9.98;1.73;;;;;;;8.78;62.40;100418.50;5055167;28;20074;-63
2023/03/29 06:07:04;;;;;;;6.18;1.35;;;;;;;8.78;61.81;100426.38;5038623;28;20108;-63
2023/03/29 06:09:30;;;;;;;8.63;1.70;;;;;;;8.80;62.35;100424.66;5037649;28;20021;-63
2023/03/29 06:11:57;;;;;;;7.78;1.65;;;;;;;8.85;62.08;100427.31;4998405;28;1194820;-64
2023/03/29 06:14:23;;;;;;;5.90;1.13;;;;;;;8.89;61.82;100436.94;5038232;28;20034;-63
2023/03/29 06:16:49;;;;;;;14.13;1.63;;;;;;;8.92;61.99;100430.84;5037382;28;20103;-64
2023/03/29 06:19:16;;;;;;;5.80;1.33;;;;;;;8.93;62.01;100432.59;5038317;28;20417;-64
2023/03/29 06:21:41;;;;;;;7.47;1.47;;;;;;;8.96;61.63;100428.25;5041397;28;20064;-64
2023/03/29 06:24:07;;;;;;;8.65;1.70;;;;;;;8.98;61.76;100425.63;5037083;28;20104;-64
2023/03/29 06:26:33;;;;;;;9.33;1.87;;;;;;;9.00;61.91;100424.75;5044462;28;20116;-64
2023/03/29 06:28:58;;;;;;;8.45;2.03;;;;;;;9.03;61.93;100418.63;5041988;28;20068;-64
2023/03/29 06:31:24;;;;;;;10.93;1.30;;;;;;;9.09;61.35;100426.56;5038638;28;20101;-64
2023/03/29 06:33:49;;;;;;;13.60;1.53;;;;;;;9.15;61.17;100421.31;5040962;28;20029;-64
2023/03/29 06:36:15;;;;;;;5.47;1.08;;;;;;;9.26;61.00;100423.09;5038024;28;20071;-64
2023/03/29 06:38:41;;;;;;;13.03;1.50;;;;;;;9.35;60.57;100428.41;5037996;28;20024;-64
2023/03/29 06:41:09;;;;;;;9.15;1.20;;;;;;;9.47;60.26;100431.06;5037041;28;20100;-64
2023/03/29 06:43:35;;;;;;;8.82;1.42;;;;;;;9.60;59.93;100436.38;5048374;28;20029;-64
2023/03/29 06:46:01;;;;;;;8.57;1.50;;;;;;;9.65;59.69;100439.03;5049372;28;20117;-64
2023/03/29 06:48:27;;;;;;;10.03;1.70;;;;;;;9.77;59.10;100442.56;5032774;28;20029;-64
2023/03/29 06:50:53;;;;;;;7.15;1.60;;;;;;;9.89;58.99;100451.34;5040416;28;21125;-64
2023/03/29 06:53:20;;;;;;;8.55;1.60;;;;;;;10.02;59.12;100444.34;5037708;28;20079;-65
2023/03/29 06:55:46;;;;;;;12.20;1.20;;;;;;;10.18;58.55;100446.13;5045657;28;20021;-64
2023/03/29 06:58:12;;;;;;;8.00;1.40;;;;;;;10.32;58.38;100440.84;5055548;28;20040;-64
2023/03/29 07:00:38;;;;;;;10.07;2.28;;;;;;;10.46;57.83;100439.97;5037986;28;20064;-64
2023/03/29 07:03:09;;;;;;;8.67;1.20;;;;;;;10.61;57.65;100439.13;5037496;28;20021;-64
2023/03/29 07:05:39;;;;;;;6.97;1.33;;;;;;;10.74;57.16;100438.19;5037128;28;20029;-64
2023/03/29 07:10:37;;;;;;;7.73;1.60;;;;;;;10.98;56.92;100440.78;5037456;28;20485;-64
2023/03/29 07:13:04;;;;;;;7.28;1.35;;;;;;;11.10;56.64;100442.50;5037321;28;20040;-64
2023/03/29 07:15:31;;;;;;;6.47;1.23;;;;;;;11.25;56.01;100438.94;5037408;28;20492;-64
2023/03/29 07:17:56;;;;;;;8.37;1.47;;;;;;;11.39;55.38;100431.81;5037202;28;20037;-64
2023/03/29 07:20:23;;;;;;;6.32;1.20;;;;;;;11.55;54.85;100429.97;5037422;28;20116;-65
2023/03/29 07:22:52;;;;;;;6.63;0.88;;;;;;;11.72;54.57;100431.66;5037027;28;20358;-64
2023/03/29 07:25:21;;;;;;;5.45;0.90;;;;;;;11.90;54.23;100442.09;5037036;28;20081;-64
2023/03/29 07:27:47;;;;;;;7.27;1.10;;;;;;;12.04;53.63;100434.13;5037030;28;20033;-65
2023/03/29 07:30:18;;;;;;;8.00;1.20;;;;;;;12.19;52.99;100437.53;5035780;28;20030;-65
2023/03/29 07:32:45;;;;;;;8.13;0.98;;;;;;;12.29;52.77;100436.56;5037084;28;20079;-64
2023/03/29 07:35:12;;;;;;;7.72;1.00;;;;;;;12.40;53.01;100431.19;5035510;28;20025;-65
2023/03/29 07:37:38;;;;;;;8.57;1.00;;;;;;;12.58;53.12;100424.84;5037188;28;20064;-65
2023/03/29 07:40:22;;;;;;;6.10;1.20;;;;;;;12.72;52.72;100421.22;5036939;28;20024;-64
2023/03/29 07:42:55;;;;;;;7.28;0.90;;;;;;;12.82;52.70;100424.63;5034478;28;20536;-64
2023/03/29 07:45:23;;;;;;;7.63;1.23;;;;;;;12.85;53.27;100428.09;5035767;28;20033;-65
2023/03/29 07:47:52;;;;;;;6.85;1.10;;;;;;;13.06;53.22;100418.16;5037241;28;20501;-65
2023/03/29 07:50:18;;;;;;;9.93;1.15;;;;;;;13.23;53.54;100417.97;5039908;28;20104;-65
2023/03/29 07:52:44;;;;;;;10.50;1.70;;;;;;;13.38;53.43;100418.66;5056598;28;20043;-65
2023/03/29 07:55:12;;;;;;;6.43;1.30;;;;;;;13.52;53.57;100421.16;5056871;28;20028;-65
2023/03/29 07:57:38;;;;;;;6.33;1.20;;;;;;;13.64;53.51;100421.00;5056927;28;20036;-65
2023/03/29 08:00:13;;;;;;;5.88;1.20;;;;;;;13.77;53.58;100421.69;5039119;28;20029;-65
2023/03/29 08:02:39;;;;;;;6.72;1.55;;;;;;;13.84;53.57;100417.16;5037018;28;20044;-65
2023/03/29 08:05:05;;;;;;;6.18;1.10;;;;;;;14.01;53.21;100411.63;5036480;28;20029;-65
2023/03/29 08:07:31;;;;;;;5.77;1.17;;;;;;;14.15;52.94;100427.28;5036774;28;20040;-65
2023/03/29 08:09:57;;;;;;;6.38;1.30;;;;;;;14.24;52.68;100423.63;5036356;28;20449;-65
2023/03/29 08:12:22;;;;;;;7.38;1.50;;;;;;;14.36;52.24;100423.41;5036912;28;20036;-65
2023/03/29 08:14:48;;;;;;;6.93;1.40;;;;;;;14.46;51.64;100417.03;5036420;28;20024;-65
2023/03/29 08:17:13;;;;;;;5.90;1.20;;;;;;;14.54;51.78;100411.59;5035618;28;20021;-65
2023/03/29 08:19:39;;;;;;;6.40;1.30;;;;;;;14.70;51.21;100401.56;5036630;28;20048;-65
2023/03/29 08:22:04;;;;;;;8.20;1.40;;;;;;;14.87;51.15;100408.38;5036309;28;20018;-65
2023/03/29 08:24:30;;;;;;;7.27;1.40;;;;;;;15.15;51.02;100411.34;5036322;28;20268;-65
2023/03/29 08:26:55;;;;;;;5.90;1.30;;;;;;;15.36;50.28;100412.66;5036887;28;20075;-65
2023/03/29 08:29:21;;;;;;;8.38;1.55;;;;;;;15.35;49.79;100416.22;5036070;28;20024;-65
2023/03/29 08:31:46;;;;;;;7.47;0.90;;;;;;;15.69;49.39;100411.94;5035372;28;20025;-65
2023/03/29 08:34:12;;;;;;;5.47;0.90;;;;;;;15.81;49.09;100402.81;5036505;28;20033;-65
2023/03/29 08:36:39;;;;;;;7.85;1.10;;;;;;;16.02;48.89;100401.47;5036440;28;20033;-65
2023/03/29 08:39:04;;;;;;;6.50;1.02;;;;;;;16.19;48.78;100395.75;5036405;28;20049;-65
2023/03/29 08:42:01;;;;;;;9.10;1.50;;;;;;;16.28;48.35;100397.31;5040303;28;20029;-65
2023/03/29 08:44:47;;;;;;;6.25;1.05;;;;;;;16.26;48.08;100395.59;5036768;28;20036;-65
2023/03/29 08:47:16;;;;;;;9.23;1.52;;;;;;;16.18;47.76;100390.47;5041176;28;20104;-65
2023/03/29 08:49:45;;;;;;;6.45;1.20;;;;;;;16.26;48.00;100392.94;5056336;28;20056;-65
2023/03/29 08:52:40;;;;;;;5.18;1.10;;;;;;;16.22;47.96;100394.78;5056202;28;20025;-65
2023/03/29 08:55:13;;;;;;;9.07;1.27;;;;;;;16.34;48.15;100390.94;5056212;28;20029;-65
2023/03/29 08:57:46;;;;;;;8.52;1.20;;;;;;;16.43;48.28;100384.50;5056432;28;20025;-65
2023/03/29 09:00:21;;;;;;;10.23;1.30;;;;;;;16.53;48.30;100378.06;5037788;28;20176;-65
2023/03/29 09:02:50;;;;;;;6.00;1.40;;;;;;;16.56;48.63;100372.66;5036324;28;20051;-66
2023/03/29 09:05:26;;;;;;;8.25;1.55;;;;;;;16.62;48.54;100368.91;5035323;28;20401;-65
2023/03/29 09:07:52;;;;;;;7.50;0.90;;;;;;;16.75;48.66;100369.44;5034985;28;20075;-65
2023/03/29 09:10:23;;;;;;;6.32;1.40;;;;;;;16.81;48.83;100368.41;5039734;28;20046;-65
2023/03/29 09:13:17;;;;;;;9.68;1.15;;;;;;;16.99;49.19;100367.03;5038666;28;20026;-65
2023/03/29 09:15:51;;;;;;;7.10;1.25;;;;;;;17.22;48.72;100369.03;5038775;28;20044;-65
2023/03/29 09:18:38;;;;;;;4.70;0.80;;;;;;;17.32;48.32;100364.31;5039703;28;20033;-64
2023/03/29 09:21:15;;;;;;;7.23;1.20;;;;;;;17.56;48.57;100369.78;5037850;28;20112;-65
2023/03/29 09:24:07;;;;;;;8.38;1.27;;;;;;;17.62;48.01;100369.59;5031348;28;20435;-65
2023/03/29 09:26:46;;;;;;;7.70;1.52;;;;;;;17.81;47.85;100361.88;5039667;28;20044;-65
2023/03/29 09:29:30;;;;;;;4.95;1.20;;;;;;;18.00;47.66;100353.28;5039016;28;20148;-65
2023/03/29 09:31:56;;;;;;;6.32;1.23;;;;;;;18.15;47.64;100347.47;5039510;28;20033;-65
2023/03/29 09:34:40;;;;;;;7.10;1.17;;;;;;;18.26;47.20;100352.44;5039598;28;20402;-67
2023/03/29 09:37:21;;;;;;;6.57;1.40;;;;;;;18.36;47.37;100345.84;5039322;28;20037;-65
2023/03/29 09:39:48;;;;;;;6.70;1.40;;;;;;;18.25;47.84;100345.34;5039333;28;20025;-65
2023/03/29 09:42:16;;;;;;;6.50;1.25;;;;;;;18.32;48.35;100341.53;5043065;28;20040;-65
2023/03/29 09:44:56;;;;;;;8.33;1.10;;;;;;;18.39;47.77;100341.31;5043624;28;20116;-65
2023/03/29 09:47:31;;;;;;;8.85;1.52;;;;;;;18.59;47.84;100343.28;5025786;28;20036;-65
2023/03/29 09:50:12;;;;;;;7.35;1.30;;;;;;;18.80;47.47;100346.94;5032341;28;20065;-65
2023/03/29 09:52:37;;;;;;;7.82;1.50;;;;;;;19.00;47.51;100332.03;5037733;28;20035;-65
2023/03/29 09:55:05;;;;;;;6.23;1.30;;;;;;;19.09;47.47;100329.00;5038915;28;20030;-65
2023/03/29 09:57:31;;;;;;;6.85;1.60;;;;;;;19.27;47.43;100318.53;5039203;28;20026;-66
2023/03/29 09:59:57;;;;;;;10.23;1.93;;;;;;;19.42;47.00;100312.59;5038745;28;20036;-66
2023/03/29 10:02:23;;;;;;;6.53;1.40;;;;;;;19.57;46.67;100318.22;5038854;28;20029;-65
2023/03/29 10:04:54;;;;;;;8.10;1.67;;;;;;;19.59;46.75;100313.69;5038450;28;20075;-66
2023/03/29 10:07:21;;;;;;;7.63;1.40;;;;;;;19.89;45.74;100305.31;5038816;28;20036;-66
2023/03/29 10:09:50;;;;;;;7.28;1.30;;;;;;;19.99;46.02;100296.03;5038333;28;20030;-66
2023/03/29 10:12:16;;;;;;;10.43;1.50;;;;;;;20.02;46.46;100295.91;5038780;28;20557;-65
2023/03/29 10:14:45;;;;;;;9.10;1.50;;;;;;;20.14;46.16;100294.50;5037568;28;20528;-66
2023/03/29 10:17:25;;;;;;;7.03;1.55;;;;;;;20.05;45.82;100292.22;5037105;28;20053;-66
2023/03/29 10:19:55;;;;;;;7.13;1.38;;;;;;;20.13;46.49;100292.75;5038396;28;20033;-65
2023/03/29 10:22:30;;;;;;;9.60;1.58;;;;;;;20.20;46.52;100290.69;5038212;28;20143;-65
2023/03/29 10:24:56;;;;;;;7.45;1.50;;;;;;;20.20;46.42;100294.22;5038559;28;20045;-66
2023/03/29 10:27:30;;;;;;;5.33;1.30;;;;;;;20.33;45.75;100293.69;5031340;28;20021;-67
2023/03/29 10:29:59;;;;;;;8.52;1.75;;;;;;;20.34;45.73;100285.59;5030736;28;20021;-66
2023/03/29 10:32:33;;;;;;;4.88;1.10;;;;;;;20.32;45.74;100278.59;5022779;28;20041;-66
2023/03/29 10:35:12;;;;;;;8.70;1.88;;;;;;;20.37;45.70;100280.09;5031273;28;20148;-66
2023/03/29 10:37:42;;;;;;;8.20;1.73;;;;;;;20.49;45.68;100283.16;5034986;28;20037;-66
2023/03/29 10:40:32;;;;;;;7.23;1.63;;;;;;;20.62;45.62;100273.66;5035420;28;20065;-66
2023/03/29 10:43:19;;;;;;;7.65;1.42;;;;;;;20.71;45.46;100261.63;5033823;28;20540;-66
2023/03/29 10:45:55;;;;;;;8.52;1.40;;;;;;;20.87;45.07;100266.31;5032100;28;20032;-66
2023/03/29 10:48:29;;;;;;;7.18;1.40;;;;;;;20.96;44.54;100259.66;5027045;28;20030;-65
2023/03/29 10:50:58;;;;;;;7.65;1.35;;;;;;;21.00;45.20;100255.88;5033577;28;20127;-64
2023/03/29 10:53:27;;;;;;;8.17;1.40;;;;;;;21.01;45.44;100247.78;5037604;28;20056;-66
2023/03/29 10:56:20;;;;;;;9.68;1.30;;;;;;;21.12;44.76;100251.75;5037170;28;20650;-66
2023/03/29 10:59:06;;;;;;;8.77;1.50;;;;;;;21.28;44.96;100250.06;5037432;28;20025;-66
2023/03/29 11:01:47;;;;;;;8.52;1.50;;;;;;;21.50;44.31;100249.84;5037565;28;20021;-66
2023/03/29 11:04:32;;;;;;;8.13;1.70;;;;;;;21.73;43.64;100233.59;5036075;28;20485;-66
2023/03/29 11:07:08;;;;;;;11.57;1.40;;;;;;;21.85;43.61;100232.09;5033730;28;20033;-66
2023/03/29 11:09:58;;;;;;;7.18;1.42;;;;;;;22.04;42.95;100227.50;5037237;28;20029;-66
2023/03/29 11:12:43;;;;;;;6.40;1.48;;;;;;;22.25;42.75;100224.63;5035673;28;20041;-66
2023/03/29 11:15:28;;;;;;;7.00;1.60;;;;;;;22.34;43.18;100213.41;5058357;28;20046;-65
2023/03/29 11:18:05;;;;;;;5.75;1.30;;;;;;;22.31;42.91;100213.59;5033640;28;20420;-66
2023/03/29 11:20:38;;;;;;;8.70;1.90;;;;;;;22.47;42.60;100213.63;5025403;28;20100;-64
2023/03/29 11:23:19;;;;;;;8.48;1.65;;;;;;;22.50;42.71;100209.91;5041191;28;20028;-64
2023/03/29 11:25:53;;;;;;;7.68;1.50;;;;;;;22.68;42.14;100205.34;5037047;28;20025;-64
2023/03/29 11:28:42;;;;;;;9.63;1.60;;;;;;;22.72;41.85;100200.66;5039077;28;20508;-66
2023/03/29 11:31:35;;;;;;;7.20;1.45;;;;;;;22.86;42.17;100203.44;5042977;28;20092;-65
2023/03/29 11:34:20;;;;;;;8.87;1.17;;;;;;;23.05;41.93;100199.72;5039911;28;20079;-64
2023/03/29 11:36:52;;;;;;;7.43;1.63;;;;;;;23.29;41.73;100194.75;5046312;28;20026;-66
2023/03/29 11:39:25;;;;;;;7.72;1.40;;;;;;;23.36;41.31;100195.28;5041480;28;20465;-66
2023/03/29 11:42:02;;;;;;;11.20;1.73;;;;;;;23.49;40.67;100180.13;5037670;28;20017;-66
2023/03/29 11:44:30;;;;;;;9.93;1.65;;;;;;;23.64;40.30;100183.75;5039781;28;20025;-66
2023/03/29 11:47:07;;;;;;;10.00;1.70;;;;;;;23.62;40.27;100180.25;5043053;28;20108;-67
2023/03/29 11:49:36;;;;;;;11.07;1.98;;;;;;;23.69;40.05;100179.91;5042649;28;20013;-67